Wetterdaten: Freitag, 26.09.2014
Datum Zeit Temp. A. Feuchte A. Luftdruck Regen Wind Richtung Richtung Sonnenschein ET UV Solar Taupunkt Windchill Windben Empfang
26.09.2014 00:00 10,5 C 81 % 1021,9 hPa 0,0 l/m 1,4 km/h (1 Bft) NW 309 0 min 0,000 mm 0,0 UV-I 0 W/m 7,4 C 10,5 C 4,0 km/h (1 Bft) 0,00 %
26.09.2014 00:15 10,3 C 83 % 1021,8 hPa 0,0 l/m 0,0 km/h (0 Bft) W-NW 287 0 min 0,000 mm 0,0 UV-I 0 W/m 7,5 C 10,3 C 0,0 km/h (0 Bft) 0,00 %
26.09.2014 00:30 10,2 C 83 % 1022,0 hPa 0,0 l/m 0,0 km/h (0 Bft) SW 220 0 min 0,000 mm 0,0 UV-I 0 W/m 7,4 C 10,2 C 0,0 km/h (0 Bft) 0,00 %
26.09.2014 00:45 10,2 C 83 % 1021,7 hPa 0,0 l/m 0,0 km/h (0 Bft) W-SW 256 0 min 0,000 mm 0,0 UV-I 0 W/m 7,4 C 10,2 C 0,0 km/h (0 Bft) 0,00 %
26.09.2014 01:00 10,1 C 83 % 1021,9 hPa 0,0 l/m 0,4 km/h (0 Bft) NW 318 0 min 0,000 mm 0,0 UV-I 0 W/m 7,3 C 10,1 C 4,0 km/h (1 Bft) 0,00 %
26.09.2014 01:15 10,0 C 83 % 1021,8 hPa 0,0 l/m 0,4 km/h (0 Bft) S 183 0 min 0,000 mm 0,0 UV-I 0 W/m 7,2 C 10,0 C 4,0 km/h (1 Bft) 0,00 %
26.09.2014 01:30 9,9 C 83 % 1021,8 hPa 0,0 l/m 0,7 km/h (0 Bft) N 356 0 min 0,000 mm 0,0 UV-I 0 W/m 7,2 C 9,9 C 4,0 km/h (1 Bft) 0,00 %
26.09.2014 01:45 9,8 C 84 % 1021,9 hPa 0,0 l/m 0,4 km/h (0 Bft) W-NW 291 0 min 0,000 mm 0,0 UV-I 0 W/m 7,2 C 9,8 C 4,0 km/h (1 Bft) 0,00 %
26.09.2014 02:00 10,0 C 83 % 1021,8 hPa 0,0 l/m 0,0 km/h (0 Bft) SO 146 0 min 0,000 mm 0,0 UV-I 0 W/m 7,2 C 10,0 C 0,0 km/h (0 Bft) 0,00 %
26.09.2014 02:15 10,1 C 83 % 1021,9 hPa 0,0 l/m 0,0 km/h (0 Bft) O-SO 112 0 min 0,000 mm 0,0 UV-I 0 W/m 7,3 C 10,1 C 0,0 km/h (0 Bft) 0,00 %
26.09.2014 02:30 10,1 C 83 % 1021,6 hPa 0,0 l/m 0,0 km/h (0 Bft) SW 227 0 min 0,000 mm 0,0 UV-I 0 W/m 7,3 C 10,1 C 0,0 km/h (0 Bft) 0,00 %
26.09.2014 02:45 10,2 C 83 % 1021,7 hPa 0,0 l/m 0,7 km/h (0 Bft) W 278 0 min 0,000 mm 0,0 UV-I 0 W/m 7,4 C 10,2 C 4,0 km/h (1 Bft) 0,00 %
26.09.2014 03:00 10,3 C 82 % 1021,8 hPa 0,0 l/m 5,4 km/h (1 Bft) W-SW 253 0 min 0,000 mm 0,0 UV-I 0 W/m 7,4 C 10,3 C 7,9 km/h (2 Bft) 0,00 %
26.09.2014 03:15 10,4 C 81 % 1021,8 hPa 0,0 l/m 0,0 km/h (0 Bft) SW 222 0 min 0,000 mm 0,0 UV-I 0 W/m 7,3 C 10,4 C 0,0 km/h (0 Bft) 0,00 %
26.09.2014 03:30 10,5 C 81 % 1021,9 hPa 0,0 l/m 0,0 km/h (0 Bft) W-SW 252 0 min 0,000 mm 0,0 UV-I 0 W/m 7,4 C 10,5 C 0,0 km/h (0 Bft) 0,00 %
26.09.2014 03:45 10,4 C 82 % 1021,9 hPa 0,0 l/m 0,0 km/h (0 Bft) W-SW 255 0 min 0,000 mm 0,0 UV-I 0 W/m 7,5 C 10,4 C 0,0 km/h (0 Bft) 0,00 %
26.09.2014 04:00 10,3 C 82 % 1021,9 hPa 0,0 l/m 0,4 km/h (0 Bft) W 280 0 min 0,000 mm 0,0 UV-I 0 W/m 7,4 C 10,3 C 4,0 km/h (1 Bft) 0,00 %
26.09.2014 04:15 10,3 C 82 % 1021,9 hPa 0,0 l/m 0,4 km/h (0 Bft) S 173 0 min 0,000 mm 0,0 UV-I 0 W/m 7,4 C 10,3 C 4,0 km/h (1 Bft) 0,00 %
26.09.2014 04:30 10,4 C 82 % 1022,0 hPa 0,0 l/m 0,0 km/h (0 Bft) SO 135 0 min 0,000 mm 0,0 UV-I 0 W/m 7,5 C 10,4 C 0,0 km/h (0 Bft) 0,00 %
26.09.2014 04:45 10,5 C 81 % 1022,0 hPa 0,0 l/m 1,8 km/h (1 Bft) S 190 0 min 0,000 mm 0,0 UV-I 0 W/m 7,4 C 10,5 C 4,0 km/h (1 Bft) 0,00 %
26.09.2014 05:00 10,5 C 81 % 1021,9 hPa 0,0 l/m 0,7 km/h (0 Bft) NW 305 0 min 0,000 mm 0,0 UV-I 0 W/m 7,4 C 10,5 C 4,0 km/h (1 Bft) 0,00 %
26.09.2014 05:15 10,5 C 81 % 1021,9 hPa 0,0 l/m 0,0 km/h (0 Bft) S 178 0 min 0,000 mm 0,0 UV-I 0 W/m 7,4 C 10,5 C 0,0 km/h (0 Bft) 0,00 %
26.09.2014 05:30 10,5 C 80 % 1021,8 hPa 0,0 l/m 1,8 km/h (1 Bft) O 96 0 min 0,000 mm 0,0 UV-I 0 W/m 7,2 C 10,5 C 4,0 km/h (1 Bft) 0,00 %
26.09.2014 05:45 10,5 C 80 % 1021,7 hPa 0,0 l/m 0,0 km/h (0 Bft) NW 321 0 min 0,000 mm 0,0 UV-I 0 W/m 7,2 C 10,5 C 0,0 km/h (0 Bft) 0,00 %
26.09.2014 06:00 10,5 C 80 % 1021,9 hPa 0,0 l/m 0,4 km/h (0 Bft) O 92 0 min 0,000 mm 0,0 UV-I 0 W/m 7,2 C 10,5 C 4,0 km/h (1 Bft) 0,00 %
26.09.2014 06:15 10,4 C 80 % 1021,9 hPa 0,0 l/m 2,2 km/h (1 Bft) S 171 0 min 0,000 mm 0,0 UV-I 0 W/m 7,1 C 10,4 C 7,9 km/h (2 Bft) 0,00 %
26.09.2014 06:30 10,5 C 80 % 1021,8 hPa 0,0 l/m 2,2 km/h (1 Bft) W-SW 256 0 min 0,000 mm 0,0 UV-I 0 W/m 7,2 C 10,5 C 4,0 km/h (1 Bft) 0,00 %
26.09.2014 06:45 10,5 C 80 % 1022,1 hPa 0,0 l/m 0,0 km/h (0 Bft) O-SO 112 0 min 0,000 mm 0,0 UV-I 0 W/m 7,2 C 10,5 C 0,0 km/h (0 Bft) 0,00 %
26.09.2014 07:00 10,4 C 81 % 1022,0 hPa 0,0 l/m 1,4 km/h (1 Bft) W-NW 283 0 min 0,000 mm 0,0 UV-I 0 W/m 7,3 C 10,4 C 4,0 km/h (1 Bft) 0,00 %
26.09.2014 07:15 10,5 C 80 % 1022,1 hPa 0,0 l/m 0,0 km/h (0 Bft) S 173 0 min 0,000 mm 1,0 UV-I 4 W/m 7,2 C 10,5 C 0,0 km/h (0 Bft) 0,00 %
26.09.2014 07:30 10,5 C 80 % 1022,3 hPa 0,0 l/m 0,0 km/h (0 Bft) W-SW 252 0 min 0,000 mm 0,0 UV-I 16 W/m 7,2 C 10,5 C 0,0 km/h (0 Bft) 0,00 %
26.09.2014 07:45 10,7 C 80 % 1022,4 hPa 0,0 l/m 0,0 km/h (0 Bft) S-SW 201 0 min 0,000 mm 1,0 UV-I 24 W/m 7,4 C 10,7 C 0,0 km/h (0 Bft) 0,00 %
26.09.2014 08:00 10,8 C 80 % 1022,3 hPa 0,0 l/m 0,0 km/h (0 Bft) N 355 0 min 0,000 mm 1,0 UV-I 45 W/m 7,5 C 10,8 C 0,0 km/h (0 Bft) 0,00 %
26.09.2014 08:15 10,9 C 80 % 1022,5 hPa 0,0 l/m 3,2 km/h (1 Bft) SW 221 0 min 0,000 mm 1,0 UV-I 55 W/m 7,6 C 10,9 C 7,9 km/h (2 Bft) 0,00 %
26.09.2014 08:30 11,0 C 80 % 1022,5 hPa 0,0 l/m 0,0 km/h (0 Bft) W-SW 238 0 min 0,000 mm 1,0 UV-I 18 W/m 7,7 C 11,0 C 0,0 km/h (0 Bft) 0,00 %
26.09.2014 08:45 11,1 C 79 % 1022,5 hPa 0,0 l/m 1,8 km/h (1 Bft) N-NW 333 0 min 0,000 mm 2,0 UV-I 47 W/m 7,6 C 11,1 C 4,0 km/h (1 Bft) 0,00 %
26.09.2014 09:00 11,2 C 79 % 1022,6 hPa 0,0 l/m 1,8 km/h (1 Bft) N 357 0 min 0,000 mm 2,0 UV-I 47 W/m 7,7 C 11,2 C 4,0 km/h (1 Bft) 0,00 %
26.09.2014 09:15 11,3 C 79 % 1022,6 hPa 0,0 l/m 2,9 km/h (1 Bft) N 356 0 min 0,000 mm 1,0 UV-I 62 W/m 7,8 C 11,3 C 4,0 km/h (1 Bft) 0,00 %
26.09.2014 09:30 11,6 C 78 % 1022,3 hPa 0,0 l/m 0,4 km/h (0 Bft) SW 218 0 min 0,000 mm 2,0 UV-I 119 W/m 7,9 C 11,6 C 4,0 km/h (1 Bft) 0,00 %
26.09.2014 09:45 12,4 C 75 % 1022,3 hPa 0,0 l/m 0,4 km/h (0 Bft) S-SW 196 0 min 0,000 mm 2,0 UV-I 180 W/m 8,1 C 12,4 C 4,0 km/h (1 Bft) 0,00 %
26.09.2014 10:00 12,6 C 74 % 1022,4 hPa 0,0 l/m 0,7 km/h (0 Bft) S-SW 196 0 min 0,000 mm 1,0 UV-I 150 W/m 8,1 C 12,6 C 4,0 km/h (1 Bft) 0,00 %
26.09.2014 10:15 12,8 C 75 % 1022,4 hPa 0,0 l/m 0,0 km/h (0 Bft) W 263 0 min 0,000 mm 1,0 UV-I 144 W/m 8,5 C 12,8 C 0,0 km/h (0 Bft) 0,00 %
26.09.2014 10:30 13,1 C 74 % 1022,6 hPa 0,0 l/m 7,2 km/h (2 Bft) W-SW 255 0 min 0,000 mm 1,0 UV-I 159 W/m 8,6 C 12,6 C 15,8 km/h (3 Bft) 0,00 %
26.09.2014 10:45 12,8 C 75 % 1022,9 hPa 0,0 l/m 1,8 km/h (1 Bft) W-SW 255 0 min 0,000 mm 1,0 UV-I 94 W/m 8,5 C 12,8 C 4,0 km/h (1 Bft) 0,00 %
26.09.2014 11:00 12,8 C 75 % 1022,7 hPa 0,0 l/m 2,2 km/h (1 Bft) W 260 0 min 0,000 mm 1,0 UV-I 137 W/m 8,5 C 12,8 C 4,0 km/h (1 Bft) 0,00 %
26.09.2014 11:15 13,0 C 75 % 1022,8 hPa 0,0 l/m 0,4 km/h (0 Bft) SW 227 0 min 0,000 mm 1,0 UV-I 93 W/m 8,7 C 13,0 C 4,0 km/h (1 Bft) 0,00 %
26.09.2014 11:30 13,4 C 72 % 1022,8 hPa 0,0 l/m 0,0 km/h (0 Bft) W-SW 255 0 min 0,000 mm 1,0 UV-I 131 W/m 8,5 C 13,4 C 0,0 km/h (0 Bft) 0,00 %
26.09.2014 11:45 13,4 C 72 % 1022,8 hPa 0,0 l/m 13,3 km/h (3 Bft) W 279 0 min 0,000 mm 1,0 UV-I 104 W/m 8,5 C 9,9 C 15,8 km/h (3 Bft) 0,00 %
26.09.2014 12:00 12,9 C 76 % 1023,1 hPa 0,0 l/m 0,7 km/h (0 Bft) SW 218 0 min 0,000 mm 1,0 UV-I 57 W/m 8,8 C 12,9 C 4,0 km/h (1 Bft) 0,00 %
26.09.2014 12:15 12,4 C 78 % 1023,2 hPa 0,0 l/m 0,4 km/h (0 Bft) W-SW 255 0 min 0,000 mm 2,0 UV-I 59 W/m 8,7 C 12,4 C 4,0 km/h (1 Bft) 0,00 %
26.09.2014 12:30 12,2 C 79 % 1023,2 hPa 0,0 l/m 0,4 km/h (0 Bft) W-SW 251 0 min 0,000 mm 2,0 UV-I 47 W/m 8,7 C 12,2 C 4,0 km/h (1 Bft) 0,00 %
26.09.2014 12:45 12,1 C 80 % 1023,0 hPa 0,0 l/m 0,7 km/h (0 Bft) W-SW 254 0 min 0,000 mm 2,0 UV-I 65 W/m 8,8 C 12,1 C 4,0 km/h (1 Bft) 0,00 %
26.09.2014 13:00 12,0 C 81 % 1023,1 hPa 0,0 l/m 1,4 km/h (1 Bft) SW 226 0 min 0,000 mm 2,0 UV-I 101 W/m 8,8 C 12,0 C 4,0 km/h (1 Bft) 0,00 %
26.09.2014 13:15 12,8 C 81 % 1023,0 hPa 0,0 l/m 0,0 km/h (0 Bft) NO 56 0 min 0,000 mm 2,0 UV-I 153 W/m 9,6 C 12,8 C 0,0 km/h (0 Bft) 0,00 %
26.09.2014 13:30 13,5 C 76 % 1022,5 hPa 0,0 l/m 0,0 km/h (0 Bft) W-SW 252 0 min 0,000 mm 2,0 UV-I 185 W/m 9,4 C 13,5 C 0,0 km/h (0 Bft) 0,00 %
26.09.2014 13:45 13,7 C 74 % 1022,6 hPa 0,0 l/m 0,4 km/h (0 Bft) N 356 0 min 0,000 mm 1,0 UV-I 137 W/m 9,2 C 13,7 C 4,0 km/h (1 Bft) 0,00 %
26.09.2014 14:00 13,6 C 75 % 1022,5 hPa 0,0 l/m 2,9 km/h (1 Bft) W-SW 251 0 min 0,000 mm 1,0 UV-I 102 W/m 9,3 C 13,6 C 4,0 km/h (1 Bft) 0,00 %
26.09.2014 14:15 13,8 C 74 % 1022,3 hPa 0,0 l/m 0,4 km/h (0 Bft) W-SW 256 0 min 0,000 mm 1,0 UV-I 143 W/m 9,2 C 13,8 C 4,0 km/h (1 Bft) 0,00 %
26.09.2014 14:30 14,0 C 72 % 1022,3 hPa 0,0 l/m 0,0 km/h (0 Bft) O 99 0 min 0,000 mm 1,0 UV-I 124 W/m 9,0 C 14,0 C 0,0 km/h (0 Bft) 0,00 %
26.09.2014 14:45 13,7 C 70 % 1022,4 hPa 0,0 l/m 6,8 km/h (2 Bft) W-SW 256 0 min 0,000 mm 1,0 UV-I 87 W/m 8,3 C 13,5 C 7,9 km/h (2 Bft) 0,00 %
26.09.2014 15:00 13,4 C 73 % 1022,5 hPa 0,0 l/m 0,0 km/h (0 Bft) O-SO 107 0 min 0,000 mm 1,0 UV-I 68 W/m 8,7 C 13,4 C 0,0 km/h (0 Bft) 0,00 %
26.09.2014 15:15 13,2 C 75 % 1022,6 hPa 0,0 l/m 0,7 km/h (0 Bft) SO 129 0 min 0,000 mm 1,0 UV-I 61 W/m 8,9 C 13,2 C 4,0 km/h (1 Bft) 0,00 %
26.09.2014 15:30 13,0 C 75 % 1023,0 hPa 0,0 l/m 0,7 km/h (0 Bft) O-SO 118 0 min 0,000 mm 1,0 UV-I 57 W/m 8,7 C 13,0 C 4,0 km/h (1 Bft) 0,00 %
26.09.2014 15:45 12,7 C 78 % 1023,1 hPa 0,3 l/m 1,4 km/h (1 Bft) W-SW 256 0 min 0,000 mm 1,0 UV-I 64 W/m 9,0 C 12,7 C 4,0 km/h (1 Bft) 0,00 %
26.09.2014 16:00 12,2 C 81 % 1023,3 hPa 0,3 l/m 1,4 km/h (1 Bft) W-SW 250 0 min 0,000 mm 1,0 UV-I 66 W/m 9,0 C 12,2 C 4,0 km/h (1 Bft) 0,00 %
26.09.2014 16:15 11,9 C 83 % 1023,0 hPa 0,0 l/m 0,4 km/h (0 Bft) W-SW 252 0 min 0,000 mm 0,0 UV-I 57 W/m 9,1 C 11,9 C 4,0 km/h (1 Bft) 0,00 %
26.09.2014 16:30 12,0 C 83 % 1022,9 hPa 0,0 l/m 0,0 km/h (0 Bft) W-SW 255 0 min 0,000 mm 0,0 UV-I 81 W/m 9,2 C 12,0 C 0,0 km/h (0 Bft) 0,00 %
26.09.2014 16:45 11,8 C 83 % 1023,1 hPa 0,3 l/m 0,0 km/h (0 Bft) W-SW 256 0 min 0,000 mm 0,0 UV-I 39 W/m 9,0 C 11,8 C 0,0 km/h (0 Bft) 0,00 %
26.09.2014 17:00 11,6 C 83 % 1023,2 hPa 0,3 l/m 0,4 km/h (0 Bft) W-SW 252 0 min 0,000 mm 0,0 UV-I 44 W/m 8,8 C 11,6 C 4,0 km/h (1 Bft) 0,00 %
26.09.2014 17:15 11,4 C 85 % 1022,9 hPa 0,3 l/m 0,4 km/h (0 Bft) W-SW 251 0 min 0,000 mm 0,0 UV-I 30 W/m 9,0 C 11,4 C 4,0 km/h (1 Bft) 0,00 %
26.09.2014 17:30 11,2 C 85 % 1023,4 hPa 0,6 l/m 0,4 km/h (0 Bft) S 178 0 min 0,000 mm 0,0 UV-I 25 W/m 8,8 C 11,2 C 4,0 km/h (1 Bft) 0,00 %
26.09.2014 17:45 10,9 C 85 % 1023,3 hPa 0,0 l/m 0,0 km/h (0 Bft) SW 232 0 min 0,000 mm 0,0 UV-I 17 W/m 8,5 C 10,9 C 0,0 km/h (0 Bft) 0,00 %
26.09.2014 18:00 10,8 C 85 % 1023,2 hPa 0,0 l/m 0,4 km/h (0 Bft) SW 224 0 min 0,000 mm 0,0 UV-I 26 W/m 8,4 C 10,8 C 4,0 km/h (1 Bft) 0,00 %
26.09.2014 18:15 10,8 C 85 % 1023,2 hPa 0,0 l/m 0,4 km/h (0 Bft) S 185 0 min 0,000 mm 0,0 UV-I 4 W/m 8,4 C 10,8 C 4,0 km/h (1 Bft) 0,00 %
26.09.2014 18:30 10,8 C 84 % 1023,2 hPa 0,0 l/m 0,0 km/h (0 Bft) S 179 0 min 0,000 mm 0,0 UV-I 0 W/m 8,2 C 10,8 C 0,0 km/h (0 Bft) 0,00 %
26.09.2014 18:45 10,8 C 84 % 1023,2 hPa 0,0 l/m 0,4 km/h (0 Bft) W-SW 252 0 min 0,000 mm 0,0 UV-I 0 W/m 8,2 C 10,8 C 4,0 km/h (1 Bft) 0,00 %
26.09.2014 19:00 10,8 C 84 % 1023,1 hPa 0,0 l/m 0,0 km/h (0 Bft) W-SW 256 0 min 0,000 mm 0,0 UV-I 0 W/m 8,2 C 10,8 C 0,0 km/h (0 Bft) 0,00 %
26.09.2014 19:15 10,9 C 83 % 1023,2 hPa 0,0 l/m 0,0 km/h (0 Bft) N 356 0 min 0,000 mm 0,0 UV-I 0 W/m 8,1 C 10,9 C 0,0 km/h (0 Bft) 0,00 %
26.09.2014 19:30 10,9 C 83 % 1023,2 hPa 0,3 l/m 0,4 km/h (0 Bft) S-SW 207 0 min 0,000 mm 0,0 UV-I 0 W/m 8,1 C 10,9 C 4,0 km/h (1 Bft) 0,00 %
26.09.2014 19:45 10,9 C 84 % 1023,3 hPa 0,0 l/m 0,0 km/h (0 Bft) W-SW 252 0 min 0,000 mm 0,0 UV-I 0 W/m 8,3 C 10,9 C 0,0 km/h (0 Bft) 0,00 %
26.09.2014 20:00 10,9 C 84 % 1023,4 hPa 0,3 l/m 0,0 km/h (0 Bft) NW 314 0 min 0,000 mm 0,0 UV-I 0 W/m 8,3 C 10,9 C 0,0 km/h (0 Bft) 0,00 %
26.09.2014 20:15 10,9 C 84 % 1023,4 hPa 0,0 l/m 0,0 km/h (0 Bft) S 187 0 min 0,000 mm 0,0 UV-I 0 W/m 8,3 C 10,9 C 0,0 km/h (0 Bft) 0,00 %
26.09.2014 20:30 11,0 C 84 % 1023,4 hPa 0,0 l/m 0,7 km/h (0 Bft) W-SW 256 0 min 0,000 mm 0,0 UV-I 0 W/m 8,4 C 11,0 C 4,0 km/h (1 Bft) 0,00 %
26.09.2014 20:45 11,0 C 84 % 1023,5 hPa 0,3 l/m 0,0 km/h (0 Bft) O 96 0 min 0,000 mm 0,0 UV-I 0 W/m 8,4 C 11,0 C 0,0 km/h (0 Bft) 0,00 %
26.09.2014 21:00 11,2 C 84 % 1023,3 hPa 0,0 l/m 2,2 km/h (1 Bft) SW 227 0 min 0,000 mm 0,0 UV-I 0 W/m 8,6 C 11,2 C 4,0 km/h (1 Bft) 0,00 %
26.09.2014 21:15 11,3 C 84 % 1023,7 hPa 0,0 l/m 1,4 km/h (1 Bft) W-NW 285 0 min 0,000 mm 0,0 UV-I 0 W/m 8,7 C 11,3 C 4,0 km/h (1 Bft) 0,00 %
26.09.2014 21:30 11,4 C 82 % 1023,6 hPa 0,0 l/m 0,7 km/h (0 Bft) SW 226 0 min 0,000 mm 0,0 UV-I 0 W/m 8,4 C 11,4 C 4,0 km/h (1 Bft) 0,00 %
26.09.2014 21:45 11,5 C 83 % 1023,6 hPa 0,0 l/m 0,0 km/h (0 Bft) NW 324 0 min 0,000 mm 0,0 UV-I 0 W/m 8,7 C 11,5 C 0,0 km/h (0 Bft) 0,00 %
26.09.2014 22:00 11,5 C 83 % 1023,4 hPa 0,0 l/m 0,4 km/h (0 Bft) N-NW 334 0 min 0,000 mm 0,0 UV-I 0 W/m 8,7 C 11,5 C 4,0 km/h (1 Bft) 0,00 %
26.09.2014 22:15 11,4 C 84 % 1024,0 hPa 0,0 l/m 0,7 km/h (0 Bft) W-SW 251 0 min 0,000 mm 0,0 UV-I 0 W/m 8,8 C 11,4 C 4,0 km/h (1 Bft) 0,00 %
26.09.2014 22:30 11,4 C 83 % 1024,1 hPa 0,0 l/m 0,4 km/h (0 Bft) O 99 0 min 0,000 mm 0,0 UV-I 0 W/m 8,6 C 11,4 C 4,0 km/h (1 Bft) 0,00 %
26.09.2014 22:45 11,5 C 82 % 1024,0 hPa 0,0 l/m 0,4 km/h (0 Bft) W-SW 256 0 min 0,000 mm 0,0 UV-I 0 W/m 8,5 C 11,5 C 4,0 km/h (1 Bft) 0,00 %
26.09.2014 23:00 11,6 C 82 % 1023,8 hPa 0,0 l/m 1,4 km/h (1 Bft) O-SO 115 0 min 0,000 mm 0,0 UV-I 0 W/m 8,6 C 11,6 C 4,0 km/h (1 Bft) 0,00 %
26.09.2014 23:15 11,6 C 81 % 1023,9 hPa 0,0 l/m 0,0 km/h (0 Bft) S 179 0 min 0,000 mm 0,0 UV-I 0 W/m 8,5 C 11,6 C 0,0 km/h (0 Bft) 0,00 %
26.09.2014 23:30 11,7 C 81 % 1024,1 hPa 0,0 l/m 0,0 km/h (0 Bft) S 188 0 min 0,000 mm 0,0 UV-I 0 W/m 8,5 C 11,7 C 0,0 km/h (0 Bft) 0,00 %
26.09.2014 23:45 11,6 C 82 % 1024,2 hPa 0,3 l/m 0,0 km/h (0 Bft) W-SW 256 0 min 0,000 mm 0,0 UV-I 0 W/m 8,6 C 11,6 C 0,0 km/h (0 Bft) 0,00 %
_ Min-Zeit 01:45 14:45 02:30 - 00:15 - - - - - - 06:15 01:45 00:15 00:00
Minimum _ 9,8 C 70 % 1021,6 hPa - 0,0 km/h (0 Bft) - - - - - - 7,1 C 9,8 C 0,0 km/h (0 Bft) 0,00 %
_ Max-Zeit 14:30 17:15 23:45 17:30 11:45 - - 00:00 00:00 08:45 13:30 13:15 14:30 10:30 00:00
Maximum _ 14,0 C 85 % 1024,2 hPa 0,6 l/m 13,3 km/h
W (3 Bft)
- - 0 min 0,000 mm 2,0 UV-I 185 W/m 9,6 C 14,0 C 15,8 km/h
W-SW (3 Bft)
0,00 %
Durchschnitt _ 11,4 C 80 % 1022,7 hPa #3,3 l/m 0,9 km/h (0 Bft) W-SW - #0 min. #0,000 mm 1,3 UV-I 78 W/m 8,1 C 11,4 C 2,8 km/h (1 Bft) 0,00 %